Aérodrome :
LOGIN :

S'inscrire | Disclaimer

   EN    FR    IT 

 










Légende :    VFR   VFR Marginal   IFR   IFR Intensif   IFR Très Intensif
Visi : 
Plafond : 
>= 8 km
>= 3000ft
5 à 8 km
1000 à 3000 ft
1500m à 5 km
500 à 1000 ft
800 à 1500m
200 à 500 ft
< 800m
< 200 ft
Symboles :   Orages  Brouillard  Fortes neiges  Fortes précipitations  Vent > 20 kt
SIGMETs :   Divers  Orages  Givrage  Turbulence  Onde Orograph.  Cendres Volcan.






- Altitude de l'aérodrome : 200 ft


EBBL - Klein Brogel AB

DERNIER METAR :
  • 232350Z AUTO VRB01KT 6000 BR NCD 03/03 Q1027 WHT

METARs EXPIRÉS :
  • 232339Z AUTO VRB01KT 1300 BR NCD 03/03 Q1027 AMB
  • 232334Z AUTO VRB01KT 3100 NCD 04/03 Q1027 YLO
  • 232325Z AUTO VRB01KT 9000 NCD 03/03 Q1027 BLU
  • 232318Z AUTO VRB01KT 5000 NCD 03/03 Q1027 WHT
  • 232307Z AUTO VRB01KT 1600 BR NCD 04/04 Q1027 YLO
  • 232255Z AUTO VRB01KT 5000 BR NCD 04/04 Q1027 WHT
  • 232238Z AUTO 00000KT 0350 FG NCD 04/04 Q1027 RED
  • 232214Z AUTO VRB01KT 0600 BR NCD 04/04 Q1027 RED
  • 232155Z AUTO 00000KT 0700 -RA FEW003/// 04/04 Q1027 RED
  • 232125Z AUTO VRB01KT 0750 -RA FEW003/// 04/04 Q1027 RED
  • 232107Z AUTO VRB01KT 0700 BR NCD 05/05 Q1027 RED

TAF TAF EBBL
Valide du 23 à 19h jusqu'au 24 à 07h UTC


231541Z 2319/2407 17005KT 9999 FEW035
BECMG 2403/2405 6000 SKC



MET'MAP, la Météo Aéronautique d'un coup d'oeil ! - Copyright ORBIFLY Décembre 2007 - Disclaimer

ORBIFLY MET'MAP TEAM :

Programmation & Développement : Alexandra Zaïnal
Sur une idée originale de : Baudouin d'Aumeries
Assistance à la programmation : Marc-Olivier Méhu
Soutien technique & logistique : Manuel Goepfert

Contact : metmap@orbifly.com




SOURCES & CREDITS :

   NOAA